PWSweather.com
Personal Weather Stations
Station Observations
ISTOCKPO4
Cheadle HulmeGB SK8 6NZ

Cheadle HulmeGB SK8 6NZ

Lat: 53.363783, Lon: -2.1948438

Elevation: 261

Station Type: Davis VP2 with Daytime FARS

http://www.cheadlehulmeweather.co.uk

Latest ConditionsUpdated 11:15:03 AM GMT Friday, Jul 19, 2019
Currently Today's Max Today's Min Today's Average
Temperature 58.8°F14.9°C 60.1°F15.6°C 56.8°F13.8°C 58.0°F14.4°C
Dew Point 57.1°F13.9°C 57.1°F13.9°C 52.9°F11.6°C 54.6°F12.6°C
Winds 4.0 mph ESE6.4 kmh ESE 6.0 mph -9.7 kmh - - 4.2 mph 6.8 kmh
Wind Gusts 7.0 mph11.3 kmh 15.0 mph24.1 kmh - -
Humidity 94% 94% 85% 88%
Pressure 29.73 in1006.8 mb 29.83 in1010.2 mb 29.73 in1006.8 mb -
Precipitation - 0.40 in10.2 mm - -
Hour Temp Dew Point Humidity Winds Wind Gusts Pressure Precip Precip Rate Daily Precip Total
11:15 AM 58.8°F14.9°C 57.1°F13.9°C 94% 4.0 mph ESE6.4 kmh ESE 7.0 mph11.3 kmh 29.73 in1006.8 mb 0.15 in3.8 mm 0.00 in0.0 mm 0.40 in10.2 mm
11:00 AM 58.6°F14.8°C 56.6°F13.7°C 93% 6.0 mph SE9.7 kmh SE 15.0 mph24.1 kmh 29.75 in1007.5 mb 0.22 in5.6 mm 0.00 in0.0 mm 0.39 in9.9 mm
10:45 AM 58.5°F14.7°C 56.4°F13.6°C 93% 4.0 mph SE6.4 kmh SE 11.0 mph17.7 kmh 29.75 in1007.5 mb 0.25 in6.4 mm 0.12 in3.0 mm 0.38 in9.7 mm
10:30 AM 58.3°F14.6°C 56.3°F13.5°C 93% 5.0 mph SE8.0 kmh SE 11.0 mph17.7 kmh 29.75 in1007.5 mb 0.22 in5.6 mm 0.12 in3.0 mm 0.32 in8.1 mm
10:15 AM 57.9°F14.4°C 55.9°F13.3°C 93% 5.0 mph SE8.0 kmh SE 10.0 mph16.1 kmh 29.76 in1007.8 mb 0.19 in4.8 mm 0.24 in6.1 mm 0.25 in6.4 mm
10:00 AM 58.3°F14.6°C 56.0°F13.3°C 92% 6.0 mph SE9.7 kmh SE 12.0 mph19.3 kmh 29.75 in1007.5 mb 0.13 in3.3 mm 0.04 in1.0 mm 0.17 in4.3 mm
09:45 AM 58.5°F14.7°C 56.1°F13.4°C 92% 6.0 mph SE9.7 kmh SE 11.0 mph17.7 kmh 29.76 in1007.8 mb 0.10 in2.5 mm 0.12 in3.0 mm 0.13 in3.3 mm
09:30 AM 58.8°F14.9°C 56.2°F13.4°C 91% 5.0 mph SE8.0 kmh SE 9.0 mph14.5 kmh 29.76 in1007.8 mb 0.07 in1.8 mm 0.20 in5.1 mm 0.10 in2.5 mm
09:15 AM 59.4°F15.2°C 56.7°F13.7°C 91% 3.0 mph SSE4.8 kmh SSE 8.0 mph12.9 kmh 29.77 in1008.1 mb 0.02 in0.5 mm 0.04 in1.0 mm 0.05 in1.3 mm
09:00 AM 59.5°F15.3°C 56.6°F13.7°C 90% 4.0 mph SSE6.4 kmh SSE 9.0 mph14.5 kmh 29.77 in1008.1 mb 0.01 in0.3 mm 0.01 in0.3 mm 0.04 in1.0 mm
08:45 AM 59.7°F15.4°C 56.8°F13.8°C 90% 4.0 mph SE6.4 kmh SE 8.0 mph12.9 kmh 29.77 in1008.1 mb 0.00 in0.0 mm 0.00 in0.0 mm 0.03 in0.8 mm
08:30 AM 59.5°F15.3°C 56.3°F13.5°C 89% 6.0 mph SE9.7 kmh SE 10.0 mph16.1 kmh 29.78 in1008.5 mb 0.00 in0.0 mm 0.00 in0.0 mm 0.03 in0.8 mm
08:15 AM 60.1°F15.6°C 56.8°F13.8°C 89% 5.0 mph SE8.0 kmh SE 10.0 mph16.1 kmh 29.78 in1008.5 mb 0.01 in0.3 mm 0.00 in0.0 mm 0.03 in0.8 mm
08:00 AM 59.5°F15.3°C 56.3°F13.5°C 89% 6.0 mph SE9.7 kmh SE 12.0 mph19.3 kmh 29.79 in1008.8 mb 0.01 in0.3 mm 0.00 in0.0 mm 0.03 in0.8 mm
07:45 AM 59.2°F15.1°C 56.2°F13.4°C 90% 5.0 mph SSE8.0 kmh SSE 15.0 mph24.1 kmh 29.79 in1008.8 mb 0.02 in0.5 mm 0.00 in0.0 mm 0.03 in0.8 mm
07:30 AM 58.5°F14.7°C 55.8°F13.2°C 91% 4.0 mph SE6.4 kmh SE 9.0 mph14.5 kmh 29.79 in1008.8 mb 0.02 in0.5 mm 0.04 in1.0 mm 0.03 in0.8 mm
07:15 AM 57.9°F14.4°C 55.0°F12.8°C 90% 4.0 mph SE6.4 kmh SE 8.0 mph12.9 kmh 29.80 in1009.1 mb 0.01 in0.3 mm 0.00 in0.0 mm 0.02 in0.5 mm
07:00 AM 57.7°F14.3°C 54.8°F12.7°C 90% 4.0 mph SE6.4 kmh SE 7.0 mph11.3 kmh 29.80 in1009.1 mb 0.01 in0.3 mm 0.01 in0.3 mm 0.02 in0.5 mm
06:45 AM 57.7°F14.3°C 54.5°F12.5°C 89% 5.0 mph SE8.0 kmh SE 8.0 mph12.9 kmh 29.80 in1009.1 mb 0.00 in0.0 mm 0.00 in0.0 mm 0.01 in0.3 mm
06:30 AM 57.7°F14.3°C 54.2°F12.3°C 88% 4.0 mph SSE6.4 kmh SSE 7.0 mph11.3 kmh 29.80 in1009.1 mb 0.01 in0.3 mm 0.00 in0.0 mm 0.01 in0.3 mm
06:15 AM 57.4°F14.1°C 53.9°F12.2°C 88% 3.0 mph S4.8 kmh S 7.0 mph11.3 kmh 29.81 in1009.5 mb 0.01 in0.3 mm 0.00 in0.0 mm 0.01 in0.3 mm
06:00 AM 57.2°F14.0°C 54.0°F12.2°C 89% 3.0 mph S4.8 kmh S 5.0 mph8.0 kmh 29.80 in1009.1 mb 0.01 in0.3 mm 0.00 in0.0 mm 0.01 in0.3 mm
05:45 AM 56.8°F13.8°C 53.3°F11.8°C 88% 4.0 mph S6.4 kmh S 8.0 mph12.9 kmh 29.80 in1009.1 mb 0.01 in0.3 mm 0.04 in1.0 mm 0.01 in0.3 mm
05:30 AM 56.8°F13.8°C 53.6°F12.0°C 89% 3.0 mph SSE4.8 kmh SSE 7.0 mph11.3 kmh 29.79 in1008.8 mb 0.00 in0.0 mm 0.00 in0.0 mm 0.00 in0.0 mm
05:15 AM 56.8°F13.8°C 53.3°F11.8°C 88% 4.0 mph SSE6.4 kmh SSE 9.0 mph14.5 kmh 29.79 in1008.8 mb 0.00 in0.0 mm 0.00 in0.0 mm 0.00 in0.0 mm
05:00 AM 56.8°F13.8°C 53.3°F11.8°C 88% 5.0 mph SSE8.0 kmh SSE 8.0 mph12.9 kmh 29.80 in1009.1 mb 0.00 in0.0 mm 0.00 in0.0 mm 0.00 in0.0 mm
04:45 AM 56.8°F13.8°C 53.0°F11.7°C 87% 4.0 mph SE6.4 kmh SE 7.0 mph11.3 kmh 29.80 in1009.1 mb 0.00 in0.0 mm 0.00 in0.0 mm 0.00 in0.0 mm
04:30 AM 56.8°F13.8°C 53.0°F11.7°C 87% 4.0 mph SSE6.4 kmh SSE 8.0 mph12.9 kmh 29.80 in1009.1 mb 0.00 in0.0 mm 0.00 in0.0 mm 0.00 in0.0 mm
04:15 AM 57.0°F13.9°C 52.9°F11.6°C 86% 4.0 mph SSE6.4 kmh SSE 9.0 mph14.5 kmh 29.81 in1009.5 mb 0.00 in0.0 mm 0.00 in0.0 mm 0.00 in0.0 mm
04:00 AM 57.2°F14.0°C 53.0°F11.7°C 86% 4.0 mph SSE6.4 kmh SSE 9.0 mph14.5 kmh 29.81 in1009.5 mb 0.00 in0.0 mm 0.00 in0.0 mm 0.00 in0.0 mm
03:45 AM 57.6°F14.2°C 53.4°F11.9°C 86% 4.0 mph SSE6.4 kmh SSE 9.0 mph14.5 kmh 29.80 in1009.1 mb 0.00 in0.0 mm 0.00 in0.0 mm 0.00 in0.0 mm
03:30 AM 57.7°F14.3°C 53.6°F12.0°C 86% 4.0 mph SSE6.4 kmh SSE 8.0 mph12.9 kmh 29.80 in1009.1 mb 0.00 in0.0 mm 0.00 in0.0 mm 0.00 in0.0 mm
03:15 AM 57.7°F14.3°C 53.6°F12.0°C 86% 4.0 mph SSE6.4 kmh SSE 8.0 mph12.9 kmh 29.81 in1009.5 mb 0.00 in0.0 mm 0.00 in0.0 mm 0.00 in0.0 mm
03:00 AM 57.9°F14.4°C 53.8°F12.1°C 86% 4.0 mph SSE6.4 kmh SSE 8.0 mph12.9 kmh 29.81 in1009.5 mb 0.00 in0.0 mm 0.00 in0.0 mm 0.00 in0.0 mm
02:45 AM 58.3°F14.6°C 53.8°F12.1°C 85% 4.0 mph SE6.4 kmh SE 8.0 mph12.9 kmh 29.81 in1009.5 mb 0.00 in0.0 mm 0.00 in0.0 mm 0.00 in0.0 mm
02:30 AM 58.5°F14.7°C 54.0°F12.2°C 85% 4.0 mph SSE6.4 kmh SSE 9.0 mph14.5 kmh 29.82 in1009.8 mb 0.00 in0.0 mm 0.00 in0.0 mm 0.00 in0.0 mm
02:15 AM 58.5°F14.7°C 54.0°F12.2°C 85% 4.0 mph SSE6.4 kmh SSE 10.0 mph16.1 kmh 29.82 in1009.8 mb 0.00 in0.0 mm 0.00 in0.0 mm 0.00 in0.0 mm
02:00 AM 58.5°F14.7°C 54.3°F12.4°C 86% 5.0 mph S8.0 kmh S 11.0 mph17.7 kmh 29.82 in1009.8 mb 0.00 in0.0 mm 0.00 in0.0 mm 0.00 in0.0 mm
01:45 AM 58.3°F14.6°C 54.1°F12.3°C 86% 4.0 mph SSE6.4 kmh SSE 8.0 mph12.9 kmh 29.83 in1010.2 mb 0.00 in0.0 mm 0.00 in0.0 mm 0.00 in0.0 mm
01:30 AM 57.9°F14.4°C 53.8°F12.1°C 86% 4.0 mph SSE6.4 kmh SSE 8.0 mph12.9 kmh 29.82 in1009.8 mb 0.00 in0.0 mm 0.00 in0.0 mm 0.00 in0.0 mm
01:15 AM 57.7°F14.3°C 53.6°F12.0°C 86% 3.0 mph SE4.8 kmh SE 6.0 mph9.7 kmh 29.82 in1009.8 mb 0.00 in0.0 mm 0.00 in0.0 mm 0.00 in0.0 mm
01:00 AM 57.4°F14.1°C 53.2°F11.8°C 86% 3.0 mph SSE4.8 kmh SSE 6.0 mph9.7 kmh 29.83 in1010.2 mb 0.00 in0.0 mm 0.00 in0.0 mm 0.00 in0.0 mm
12:45 AM 57.2°F14.0°C 53.0°F11.7°C 86% 3.0 mph SE4.8 kmh SE 5.0 mph8.0 kmh 29.83 in1010.2 mb 0.00 in0.0 mm 0.00 in0.0 mm 0.00 in0.0 mm
12:30 AM 57.2°F14.0°C 53.0°F11.7°C 86% 2.0 mph SSE3.2 kmh SSE 4.0 mph6.4 kmh 29.83 in1010.2 mb 0.00 in0.0 mm 0.00 in0.0 mm 0.00 in0.0 mm
12:15 AM 57.4°F14.1°C 53.2°F11.8°C 86% 4.0 mph SE6.4 kmh SE 6.0 mph9.7 kmh 29.83 in1010.2 mb 0.00 in0.0 mm 0.00 in0.0 mm 0.00 in0.0 mm
12:00 AM 57.6°F14.2°C 53.1°F11.7°C 85% 3.0 mph SE4.8 kmh SE 5.0 mph8.0 kmh 29.83 in1010.2 mb 0.00 in0.0 mm 0.00 in0.0 mm 0.00 in0.0 mm